Time;durP1;ratioP1;P1;durP2;ratioP2;P2;SDS_P1;SDS_P2;PMS_P1;PMS_P2;Temp;Humidity;BMP_temperature;BMP_pressure;BME280_temperature;BME280_humidity;BME280_pressure;Samples;Min_cycle;Max_cycle;Signal;HPM_P1;HPM_P2
2022/05/11 00:00:16;;;;;;;119.85;109.55;;;15.60;84.70;;;;;;5076674;28;20055;-71
2022/05/11 00:02:43;;;;;;;122.53;111.70;;;15.50;84.50;;;;;;5076399;28;20517;-71
2022/05/11 00:05:12;;;;;;;121.68;111.03;;;15.50;84.10;;;;;;5059448;28;20158;-71
2022/05/11 00:07:41;;;;;;;124.47;112.97;;;15.50;84.00;;;;;;5075872;28;20048;-71
2022/05/11 00:10:11;;;;;;;123.05;111.72;;;15.50;83.80;;;;;;5074706;28;20966;-71
2022/05/11 00:12:39;;;;;;;122.43;111.65;;;15.40;83.60;;;;;;5091974;28;20490;-71
2022/05/11 00:15:07;;;;;;;123.63;112.78;;;15.40;83.50;;;;;;5074786;28;20961;-71
2022/05/11 00:17:33;;;;;;;124.13;113.53;;;15.40;83.50;;;;;;5074827;28;20056;-71
2022/05/11 00:20:00;;;;;;;122.03;111.43;;;15.40;83.30;;;;;;5074619;28;20127;-71
2022/05/11 00:22:27;;;;;;;123.20;112.43;;;15.30;83.10;;;;;;5075111;28;20780;-71
2022/05/11 00:24:55;;;;;;;121.68;111.00;;;15.30;83.20;;;;;;5094536;28;20130;-71
2022/05/11 00:27:22;;;;;;;121.78;111.05;;;15.30;83.20;;;;;;5076024;28;20044;-71
2022/05/11 00:29:49;;;;;;;121.47;110.88;;;15.30;83.20;;;;;;5059515;28;20140;-71
2022/05/11 00:32:16;;;;;;;120.00;109.80;;;15.30;83.00;;;;;;5076696;28;20059;-71
2022/05/11 00:34:43;;;;;;;121.72;111.13;;;15.20;83.00;;;;;;5094472;28;20127;-71
2022/05/11 00:37:10;;;;;;;123.15;112.35;;;15.20;83.00;;;;;;5094015;28;20561;-71
2022/05/11 00:39:37;;;;;;;120.90;110.40;;;15.20;83.20;;;;;;5094572;28;20048;-72
2022/05/11 00:42:06;;;;;;;122.93;112.22;;;15.20;83.30;;;;;;5076034;28;20049;-71
2022/05/11 00:44:33;;;;;;;120.93;110.13;;;15.20;83.50;;;;;;5076551;28;20052;-71
2022/05/11 00:47:05;;;;;;;121.50;111.00;;;15.10;83.60;;;;;;5059387;28;20040;-71
2022/05/11 00:49:35;;;;;;;120.70;110.18;;;15.20;84.10;;;;;;5076482;28;20048;-71
2022/05/11 00:52:08;;;;;;;120.45;109.63;;;15.10;84.20;;;;;;5094001;28;20060;-71
2022/05/11 00:54:38;;;;;;;119.97;109.30;;;15.10;84.70;;;;;;5075845;28;20053;-71
2022/05/11 00:57:12;;;;;;;124.53;113.43;;;15.10;84.90;;;;;;5075817;28;20169;-71
2022/05/11 00:59:43;;;;;;;119.13;108.50;;;15.10;85.20;;;;;;5075169;28;20107;-71
2022/05/11 01:02:11;;;;;;;118.78;108.18;;;15.10;85.30;;;;;;5094696;28;20482;-71
2022/05/11 01:04:41;;;;;;;119.45;109.07;;;15.10;85.40;;;;;;5076452;28;20521;-71
2022/05/11 01:07:13;;;;;;;116.72;106.47;;;15.10;85.50;;;;;;5094436;28;20048;-71
2022/05/11 01:09:42;;;;;;;118.97;108.68;;;15.10;85.50;;;;;;5075660;28;20049;-71
2022/05/11 01:12:15;;;;;;;118.10;107.60;;;15.00;85.30;;;;;;5075922;28;20128;-71
2022/05/11 01:14:44;;;;;;;117.45;107.10;;;15.00;85.40;;;;;;5075420;28;20052;-72
2022/05/11 01:17:13;;;;;;;120.38;109.68;;;15.00;85.40;;;;;;5075428;28;20611;-71
2022/05/11 01:19:44;;;;;;;119.10;108.40;;;14.90;85.60;;;;;;5075313;28;20139;-71
2022/05/11 01:22:16;;;;;;;117.95;107.55;;;15.00;85.80;;;;;;5075549;28;20124;-71
2022/05/11 01:24:47;;;;;;;121.28;110.15;;;14.90;85.90;;;;;;5093916;28;20138;-71
2022/05/11 01:27:31;;;;;;;120.30;109.63;;;14.90;86.00;;;;;;5075321;28;20131;-71
2022/05/11 01:30:00;;;;;;;119.43;108.63;;;14.90;86.00;;;;;;5075677;28;20052;-71
2022/05/11 01:32:29;;;;;;;119.20;108.50;;;15.00;86.20;;;;;;5075578;28;20054;-71
2022/05/11 01:35:12;;;;;;;118.35;107.85;;;14.90;86.20;;;;;;5075533;28;20068;-71
2022/05/11 01:37:45;;;;;;;118.63;108.18;;;15.00;86.40;;;;;;5075347;28;20516;-71
2022/05/11 01:40:13;;;;;;;118.25;107.70;;;15.00;86.40;;;;;;5093442;28;20458;-71
2022/05/11 01:42:41;;;;;;;118.40;107.50;;;15.00;86.40;;;;;;5093358;28;20060;-71
2022/05/11 01:45:09;;;;;;;120.47;109.97;;;15.00;86.40;;;;;;5093753;28;20052;-71
2022/05/11 01:47:36;;;;;;;118.22;107.60;;;15.00;86.60;;;;;;5075004;28;20614;-71
2022/05/11 01:50:03;;;;;;;118.78;108.13;;;14.90;86.60;;;;;;5093570;28;20908;-71
2022/05/11 01:52:30;;;;;;;121.15;110.47;;;14.90;86.60;;;;;;5075190;28;20132;-71
2022/05/11 01:54:57;;;;;;;118.07;107.47;;;14.90;86.70;;;;;;5093615;28;21009;-71
2022/05/11 01:57:25;;;;;;;118.15;107.65;;;14.90;86.80;;;;;;5074758;28;20536;-71
2022/05/11 01:59:52;;;;;;;119.10;108.32;;;14.90;87.10;;;;;;5092049;28;20052;-71
2022/05/11 02:02:19;;;;;;;120.35;109.50;;;14.90;87.20;;;;;;5093270;28;20053;-71
2022/05/11 02:10:14;;;;;;;119.65;108.95;;;14.90;88.00;;;;;;5074995;28;20125;-71
2022/05/11 02:12:43;;;;;;;121.28;110.40;;;14.90;88.20;;;;;;5073434;28;20051;-71
2022/05/11 02:15:13;;;;;;;121.03;110.28;;;14.90;88.70;;;;;;5091607;28;20084;-71
2022/05/11 02:17:40;;;;;;;120.43;109.82;;;14.90;89.00;;;;;;5073923;28;20044;-71
2022/05/11 02:20:08;;;;;;;123.30;112.35;;;14.90;89.30;;;;;;5073905;28;20518;-71
2022/05/11 02:22:35;;;;;;;121.28;110.68;;;14.90;89.90;;;;;;5091312;28;20052;-71
2022/05/11 02:25:02;;;;;;;122.85;111.85;;;14.90;90.00;;;;;;5091154;28;20107;-71
2022/05/11 02:27:31;;;;;;;120.30;109.75;;;14.90;90.10;;;;;;5072768;28;20625;-71
2022/05/11 02:30:00;;;;;;;120.38;109.85;;;14.90;90.20;;;;;;5073075;28;20131;-71
2022/05/11 02:32:28;;;;;;;122.63;111.63;;;14.90;90.30;;;;;;5091216;28;20104;-71
2022/05/11 02:35:13;;;;;;;122.60;111.53;;;14.90;90.40;;;;;;5072890;28;20091;-71
2022/05/11 02:37:42;;;;;;;121.38;110.47;;;14.90;90.50;;;;;;5092865;28;20076;-71
2022/05/11 02:40:10;;;;;;;120.30;109.60;;;14.90;90.60;;;;;;5074449;28;20041;-71
2022/05/11 02:42:38;;;;;;;119.72;108.93;;;14.90;90.70;;;;;;5057794;28;20059;-71
2022/05/11 02:45:09;;;;;;;120.55;109.75;;;14.80;90.70;;;;;;5092383;28;20505;-71
2022/05/11 02:47:36;;;;;;;119.53;108.80;;;14.90;90.70;;;;;;5074092;28;20059;-71
2022/05/11 02:50:05;;;;;;;119.82;109.22;;;14.90;90.70;;;;;;5093079;28;20478;-72
2022/05/11 02:52:33;;;;;;;119.80;108.82;;;14.90;90.80;;;;;;5092444;28;20049;-71
2022/05/11 02:55:00;;;;;;;118.63;108.13;;;14.90;90.70;;;;;;5074423;28;20056;-71
2022/05/11 02:57:27;;;;;;;117.43;106.93;;;14.90;90.80;;;;;;5092324;28;20053;-71
2022/05/11 02:59:54;;;;;;;120.03;109.45;;;14.90;90.70;;;;;;5074720;28;20052;-71
2022/05/11 03:02:22;;;;;;;119.80;109.13;;;14.80;90.70;;;;;;5092955;28;20053;-71
2022/05/11 03:04:50;;;;;;;118.72;108.13;;;14.80;90.70;;;;;;5057991;28;20106;-71
2022/05/11 03:07:17;;;;;;;121.18;110.35;;;14.80;90.70;;;;;;5092222;28;20074;-71
2022/05/11 03:09:44;;;;;;;118.63;108.00;;;14.80;90.70;;;;;;5074242;28;20049;-71
2022/05/11 03:12:12;;;;;;;117.70;106.97;;;14.80;90.70;;;;;;5074276;28;20059;-71
2022/05/11 03:14:39;;;;;;;117.60;107.15;;;14.80;90.80;;;;;;5074192;28;20044;-71
2022/05/11 03:17:07;;;;;;;119.30;108.57;;;14.80;90.80;;;;;;5074505;28;20049;-71
2022/05/11 03:19:35;;;;;;;118.72;108.32;;;14.80;90.80;;;;;;5095560;28;20155;-72
2022/05/11 03:22:02;;;;;;;119.53;108.68;;;14.80;90.80;;;;;;5095472;28;20079;-71
2022/05/11 03:24:29;;;;;;;119.20;108.25;;;14.80;90.80;;;;;;5095825;28;20040;-72
2022/05/11 03:26:56;;;;;;;120.18;109.35;;;14.80;90.80;;;;;;5076963;28;20047;-71
2022/05/11 03:29:23;;;;;;;118.72;108.43;;;14.80;90.80;;;;;;5077250;28;20055;-71
2022/05/11 03:34:40;;;;;;;118.75;108.07;;;14.80;90.80;;;;;;5076217;28;20053;-71
2022/05/11 03:37:10;;;;;;;121.70;110.63;;;14.80;91.00;;;;;;5095035;28;20533;-72
2022/05/11 03:39:37;;;;;;;120.97;110.20;;;14.80;90.80;;;;;;5077010;28;20144;-71
2022/05/11 03:42:05;;;;;;;119.20;108.30;;;14.80;90.80;;;;;;5077361;28;20128;-71
2022/05/11 03:44:32;;;;;;;119.25;108.70;;;14.80;90.80;;;;;;5076798;28;20131;-71
2022/05/11 03:47:00;;;;;;;121.28;110.25;;;14.80;90.80;;;;;;5076347;28;20576;-72
2022/05/11 03:49:28;;;;;;;117.05;106.50;;;14.80;90.80;;;;;;5077250;28;20045;-71
2022/05/11 03:51:55;;;;;;;118.07;107.32;;;14.80;90.80;;;;;;5076851;28;20595;-71
2022/05/11 03:54:23;;;;;;;118.20;107.63;;;14.80;90.80;;;;;;5077250;28;20055;-71
2022/05/11 03:56:50;;;;;;;118.85;108.28;;;14.80;90.80;;;;;;5077184;28;20139;-71
2022/05/11 03:59:17;;;;;;;117.38;106.95;;;14.70;90.70;;;;;;5076900;28;20132;-72
2022/05/11 04:01:44;;;;;;;118.60;107.90;;;14.80;90.80;;;;;;5076829;28;20063;-71
2022/05/11 04:04:11;;;;;;;116.88;106.32;;;14.70;90.80;;;;;;5094867;28;20056;-71
2022/05/11 04:06:38;;;;;;;119.38;108.63;;;14.80;90.80;;;;;;5076794;28;20045;-71
2022/05/11 04:09:05;;;;;;;117.03;106.32;;;14.80;90.70;;;;;;5095777;28;20051;-71
2022/05/11 04:11:36;;;;;;;119.82;108.72;;;14.80;90.70;;;;;;5079220;28;20175;-72
2022/05/11 04:14:03;;;;;;;119.05;108.25;;;14.80;90.80;;;;;;5094875;28;20083;-71
2022/05/11 04:16:30;;;;;;;121.10;109.10;;;14.80;90.60;;;;;;5076541;28;20514;-71
2022/05/11 04:18:59;;;;;;;119.85;109.13;;;14.70;90.60;;;;;;5075735;28;20044;-71
2022/05/11 04:21:27;;;;;;;120.38;109.60;;;14.80;90.80;;;;;;5076331;28;20130;-71
2022/05/11 04:23:54;;;;;;;119.63;108.90;;;14.80;90.50;;;;;;5076786;28;20571;-72
2022/05/11 04:26:20;;;;;;;118.25;107.55;;;14.80;90.50;;;;;;5077034;28;20048;-71
2022/05/11 04:28:49;;;;;;;118.70;107.65;;;14.80;90.50;;;;;;5058765;28;20051;-71
2022/05/11 04:31:16;;;;;;;119.32;108.63;;;14.80;90.50;;;;;;5076530;28;20103;-71
2022/05/11 04:33:43;;;;;;;121.28;110.50;;;14.80;90.50;;;;;;5076490;28;20553;-71
2022/05/11 04:36:10;;;;;;;118.28;107.47;;;14.80;90.50;;;;;;5076682;28;20139;-71
2022/05/11 04:38:37;;;;;;;118.38;107.55;;;14.80;90.40;;;;;;5076813;28;20056;-72
2022/05/11 04:41:04;;;;;;;117.97;107.28;;;14.80;90.50;;;;;;5076148;28;20084;-71
2022/05/11 04:43:31;;;;;;;119.45;108.82;;;14.80;90.60;;;;;;5076280;28;20143;-71
2022/05/11 04:45:59;;;;;;;118.82;108.18;;;14.80;90.60;;;;;;5076304;28;20056;-71
2022/05/11 04:48:27;;;;;;;119.45;108.68;;;14.70;90.60;;;;;;5059145;28;20052;-71
2022/05/11 04:51:00;;;;;;;120.53;109.60;;;14.80;90.80;;;;;;5094463;28;20045;-71
2022/05/11 04:53:27;;;;;;;120.40;109.47;;;14.80;91.00;;;;;;5076246;28;20056;-71
2022/05/11 04:55:54;;;;;;;118.30;107.50;;;14.70;91.00;;;;;;5075926;28;20112;-71
2022/05/11 04:58:20;;;;;;;118.70;107.90;;;14.80;91.20;;;;;;5076172;28;20044;-71
2022/05/11 05:00:47;;;;;;;120.45;109.82;;;14.80;91.20;;;;;;5074027;28;20084;-71
2022/05/11 05:03:16;;;;;;;119.75;108.50;;;14.80;91.30;;;;;;5066440;28;20044;-71
2022/05/11 05:05:44;;;;;;;120.18;109.40;;;14.80;91.50;;;;;;5063880;28;20068;-71
2022/05/11 05:08:11;;;;;;;119.93;109.18;;;14.80;91.50;;;;;;5054957;28;20049;-71
2022/05/11 05:10:39;;;;;;;118.70;107.90;;;14.80;91.50;;;;;;5055625;28;20429;-71
2022/05/11 05:13:08;;;;;;;119.13;108.30;;;14.80;91.60;;;;;;5055844;28;20048;-71
2022/05/11 05:15:37;;;;;;;121.43;110.55;;;14.80;91.70;;;;;;5055665;28;20124;-71
2022/05/11 05:18:06;;;;;;;120.28;109.32;;;14.80;91.70;;;;;;5073212;28;20049;-71
2022/05/11 05:20:35;;;;;;;119.28;108.32;;;14.80;91.80;;;;;;5054840;28;20052;-71
2022/05/11 05:23:02;;;;;;;120.13;109.03;;;14.80;91.80;;;;;;5055640;28;20479;-71
2022/05/11 05:25:29;;;;;;;121.47;110.35;;;14.80;91.90;;;;;;5055763;28;20124;-71
2022/05/11 05:31:04;;;;;;;119.70;108.80;;;14.80;91.90;;;;;;5055142;28;20098;-71
2022/05/11 05:33:29;;;;;;;121.07;110.00;;;14.80;92.00;;;;;;5054973;28;20060;-71
2022/05/11 05:35:58;;;;;;;119.85;109.15;;;14.80;92.00;;;;;;5073633;28;20049;-71
2022/05/11 05:38:25;;;;;;;121.25;109.38;;;14.90;92.00;;;;;;5055339;28;20049;-71
2022/05/11 05:40:52;;;;;;;119.05;108.45;;;14.90;92.00;;;;;;5054308;28;20522;-71
2022/05/11 05:43:19;;;;;;;120.43;109.05;;;14.90;92.10;;;;;;5055316;28;20049;-71
2022/05/11 05:45:50;;;;;;;119.65;108.78;;;14.90;92.10;;;;;;5055495;28;20133;-71
2022/05/11 05:48:17;;;;;;;120.40;109.57;;;14.90;92.10;;;;;;5054883;28;20107;-71
2022/05/11 05:50:44;;;;;;;120.70;109.55;;;14.90;92.10;;;;;;5055025;28;20061;-71
2022/05/11 05:53:14;;;;;;;118.38;107.78;;;14.90;92.10;;;;;;5054701;28;20580;-71
2022/05/11 05:55:41;;;;;;;119.32;107.85;;;14.90;92.10;;;;;;5073266;28;20045;-71
2022/05/11 05:58:08;;;;;;;118.60;107.97;;;15.00;92.10;;;;;;5054034;28;20972;-71
2022/05/11 06:00:35;;;;;;;121.40;110.38;;;15.00;92.00;;;;;;5079650;28;20087;-72
2022/05/11 06:03:02;;;;;;;120.90;110.03;;;15.00;92.00;;;;;;5085983;28;20048;-72
2022/05/11 06:05:29;;;;;;;121.68;110.55;;;15.00;91.90;;;;;;5065633;28;20037;-72
2022/05/11 06:07:56;;;;;;;123.05;112.18;;;15.00;92.10;;;;;;5067068;28;20040;-72
2022/05/11 06:10:26;;;;;;;118.40;107.50;;;15.00;91.70;;;;;;5051930;28;20052;-71
2022/05/11 06:12:53;;;;;;;120.10;109.32;;;15.10;91.60;;;;;;5063509;28;20045;-72
2022/05/11 06:15:20;;;;;;;122.03;110.97;;;15.10;91.30;;;;;;5062258;28;20055;-71
2022/05/11 06:17:47;;;;;;;121.80;110.88;;;15.10;91.20;;;;;;5061590;28;20123;-72
2022/05/11 06:20:14;;;;;;;120.93;110.05;;;15.10;91.10;;;;;;5064143;28;20049;-71
2022/05/11 06:22:41;;;;;;;121.53;110.35;;;15.10;91.00;;;;;;5078760;28;20590;-74
2022/05/11 06:25:09;;;;;;;119.95;108.78;;;15.10;91.00;;;;;;5083717;28;20136;-73
2022/05/11 06:27:37;;;;;;;121.13;110.00;;;15.10;91.00;;;;;;5085509;28;20049;-73
2022/05/11 06:30:06;;;;;;;121.03;110.13;;;15.10;90.90;;;;;;5060253;28;20078;-74
2022/05/11 06:32:33;;;;;;;119.85;108.82;;;15.20;90.60;;;;;;5063256;28;20094;-74
2022/05/11 06:35:00;;;;;;;121.82;110.80;;;15.20;90.50;;;;;;5064179;28;20087;-73
2022/05/11 06:37:27;;;;;;;119.13;108.43;;;15.20;90.60;;;;;;5082622;28;20135;-72
2022/05/11 06:39:55;;;;;;;118.03;107.25;;;15.20;90.60;;;;;;5064658;28;20058;-72
2022/05/11 06:42:22;;;;;;;119.88;108.88;;;15.30;90.40;;;;;;5082443;28;20056;-72
2022/05/11 06:44:51;;;;;;;120.57;109.50;;;15.30;90.20;;;;;;5062979;28;20045;-72
2022/05/11 06:47:18;;;;;;;119.43;108.78;;;15.40;89.30;;;;;;5064240;28;20941;-72
2022/05/11 06:49:45;;;;;;;118.40;107.38;;;15.40;89.10;;;;;;5062323;28;20136;-73
2022/05/11 06:52:12;;;;;;;119.05;108.32;;;15.40;88.90;;;;;;5062369;28;20519;-73
2022/05/11 07:00:09;;;;;;;118.22;107.25;;;15.50;86.40;;;;;;5083231;28;20056;-72
2022/05/11 07:02:37;;;;;;;117.60;106.95;;;15.60;86.20;;;;;;5087771;28;20594;-72
2022/05/11 07:05:06;;;;;;;119.07;108.00;;;15.60;85.80;;;;;;5071355;28;20044;-71
2022/05/11 07:07:33;;;;;;;117.97;107.32;;;15.60;85.80;;;;;;5094050;28;20060;-71
2022/05/11 07:10:00;;;;;;;119.57;108.80;;;15.60;85.80;;;;;;5090778;28;20056;-72
2022/05/11 07:12:32;;;;;;;120.43;109.53;;;15.70;85.70;;;;;;5066621;28;20144;-72
2022/05/11 07:15:00;;;;;;;119.38;108.57;;;15.70;85.60;;;;;;5059329;28;20080;-72
2022/05/11 07:17:32;;;;;;;121.10;109.80;;;15.70;85.20;;;;;;5055831;28;20051;-71
2022/05/11 07:20:00;;;;;;;119.88;108.82;;;15.70;84.80;;;;;;5056283;28;20183;-71
2022/05/11 07:22:27;;;;;;;120.60;109.50;;;15.80;84.20;;;;;;5056359;28;20415;-72
2022/05/11 07:24:54;;;;;;;119.70;108.55;;;15.80;84.20;;;;;;5056748;28;20084;-72
2022/05/11 07:27:22;;;;;;;118.13;107.53;;;15.80;84.10;;;;;;5056693;28;20051;-71
2022/05/11 07:29:50;;;;;;;117.97;107.22;;;15.90;84.30;;;;;;5077968;28;20056;-71
2022/05/11 07:32:16;;;;;;;117.05;106.38;;;15.90;82.40;;;;;;5067587;28;20091;-71
2022/05/11 07:34:45;;;;;;;118.35;107.72;;;16.00;81.80;;;;;;5084348;28;20077;-71
2022/05/11 07:37:12;;;;;;;118.85;108.32;;;16.00;80.80;;;;;;5063881;28;20076;-72
2022/05/11 07:39:39;;;;;;;119.35;108.35;;;16.00;81.00;;;;;;5074432;28;20057;-71
2022/05/11 07:42:07;;;;;;;118.38;107.90;;;16.00;80.30;;;;;;5066050;28;20055;-73
2022/05/11 07:44:34;;;;;;;119.28;108.43;;;16.00;80.40;;;;;;5067665;28;20120;-72
2022/05/11 07:47:01;;;;;;;118.32;107.63;;;16.10;80.20;;;;;;5064427;28;20053;-72
2022/05/11 07:49:27;;;;;;;117.57;107.10;;;16.10;79.90;;;;;;5056865;28;20059;-71
2022/05/11 07:51:56;;;;;;;115.45;105.15;;;16.20;79.40;;;;;;5056988;28;20527;-71
2022/05/11 07:54:23;;;;;;;116.75;106.43;;;16.20;79.40;;;;;;5056939;28;20075;-71
2022/05/11 08:02:25;;;;;;;118.65;107.88;;;16.20;78.50;;;;;;5074681;28;20045;-71
2022/05/11 08:04:52;;;;;;;119.15;108.88;;;16.20;78.80;;;;;;5074254;28;20053;-72
2022/05/11 08:07:22;;;;;;;117.57;107.05;;;16.20;78.90;;;;;;5056455;28;20045;-71
2022/05/11 08:13:18;;;;;;;118.00;107.38;;;16.30;79.40;;;;;;5056461;28;20128;-72
2022/05/11 08:15:48;;;;;;;121.55;110.95;;;16.30;79.80;;;;;;5056054;28;20049;-71
2022/05/11 08:18:16;;;;;;;120.82;110.32;;;16.40;79.30;;;;;;5040613;28;20103;-73
2022/05/11 08:20:44;;;;;;;120.38;109.70;;;16.50;79.10;;;;;;5066611;28;20111;-73
2022/05/11 08:23:14;;;;;;;118.38;107.70;;;16.50;78.80;;;;;;5085889;28;20614;-72
2022/05/11 08:25:43;;;;;;;122.45;111.95;;;16.60;77.20;;;;;;5066080;28;20051;-72
2022/05/11 08:28:13;;;;;;;120.63;109.53;;;16.70;76.90;;;;;;5064356;28;20053;-73
2022/05/11 08:33:27;;;;;;;122.20;111.32;;;16.90;77.00;;;;;;5095119;28;20049;-73
2022/05/11 08:35:58;;;;;;;120.32;109.93;;;16.90;76.30;;;;;;5075649;28;20056;-74
2022/05/11 08:38:28;;;;;;;119.63;109.22;;;17.00;75.40;;;;;;5092505;28;20166;-74
2022/05/11 08:40:59;;;;;;;118.68;108.07;;;17.10;75.70;;;;;;5058088;28;20052;-73
2022/05/11 08:43:31;;;;;;;120.75;109.85;;;17.10;75.60;;;;;;5073804;28;20057;-72
2022/05/11 08:46:09;;;;;;;119.03;108.43;;;17.10;74.80;;;;;;5059541;28;20049;-73
2022/05/11 08:48:45;;;;;;;117.93;107.30;;;17.20;74.60;;;;;;5074030;28;20807;-73
2022/05/11 08:51:27;;;;;;;120.25;109.60;;;17.20;75.10;;;;;;5061420;28;20087;-73
2022/05/11 08:54:07;;;;;;;120.38;109.47;;;17.30;73.90;;;;;;5064616;28;20504;-73
2022/05/11 08:56:35;;;;;;;124.22;113.10;;;17.30;74.30;;;;;;5079670;28;20136;-72
2022/05/11 08:59:02;;;;;;;124.63;113.13;;;17.30;74.70;;;;;;5062157;28;20148;-73
2022/05/11 09:01:40;;;;;;;123.32;112.10;;;17.40;73.30;;;;;;5080536;28;20049;-73
2022/05/11 09:04:11;;;;;;;119.57;108.97;;;17.40;72.80;;;;;;5080216;28;20060;-74
2022/05/11 09:06:40;;;;;;;120.88;109.95;;;17.50;72.80;;;;;;5062242;28;20053;-72
2022/05/11 09:09:08;;;;;;;125.20;114.50;;;17.50;72.60;;;;;;5081110;28;20048;-72
2022/05/11 09:11:41;;;;;;;117.95;107.10;;;17.50;73.50;;;;;;5080544;28;20059;-72
2022/05/11 09:14:08;;;;;;;120.90;110.32;;;17.50;72.00;;;;;;5056726;28;20049;-73
2022/05/11 09:16:39;;;;;;;123.57;113.10;;;17.60;72.90;;;;;;5087030;28;20056;-73
2022/05/11 09:19:15;;;;;;;127.10;116.63;;;17.60;73.90;;;;;;5047988;28;20579;-73
2022/05/11 09:21:50;;;;;;;120.13;109.63;;;17.60;73.60;;;;;;5047982;28;20514;-73
2022/05/11 09:24:28;;;;;;;123.25;112.80;;;17.70;73.30;;;;;;5080808;28;20053;-72
2022/05/11 09:27:05;;;;;;;123.53;112.85;;;17.70;72.10;;;;;;5063688;28;20048;-75
2022/05/11 09:29:37;;;;;;;122.45;111.88;;;17.80;72.00;;;;;;5083005;28;20059;-77
2022/05/11 09:32:31;;;;;;;122.15;111.85;;;17.80;72.40;;;;;;5069828;28;20049;-77
2022/05/11 09:35:16;;;;;;;124.63;113.53;;;17.90;73.00;;;;;;5075109;28;20048;-77
2022/05/11 09:37:44;;;;;;;117.47;107.40;;;17.90;72.30;;;;;;5066232;28;20048;-76
2022/05/11 09:40:17;;;;;;;125.15;113.72;;;18.00;71.00;;;;;;5082988;28;20063;-78
2022/05/11 09:42:52;;;;;;;121.38;111.10;;;18.10;70.10;;;;;;5062717;28;20057;-79
2022/05/11 09:45:42;;;;;;;121.55;111.50;;;18.10;70.70;;;;;;5079690;28;20604;-77
2022/05/11 09:48:16;;;;;;;129.82;119.18;;;18.10;70.40;;;;;;5062321;28;20064;-78
2022/05/11 09:50:44;;;;;;;122.72;112.40;;;18.10;70.20;;;;;;5046057;28;20059;-77
2022/05/11 09:53:23;;;;;;;124.03;113.82;;;18.20;68.90;;;;;;5080286;28;20088;-77
2022/05/11 09:55:52;;;;;;;122.38;112.15;;;18.20;68.40;;;;;;5061173;28;20044;-77
2022/05/11 09:58:29;;;;;;;124.50;114.28;;;18.30;68.10;;;;;;5079851;28;20059;-77
2022/05/11 10:01:11;;;;;;;125.22;114.75;;;18.30;67.70;;;;;;5063695;28;20041;-77
2022/05/11 10:03:43;;;;;;;121.30;111.03;;;18.30;66.60;;;;;;5062008;28;20576;-77
2022/05/11 10:06:11;;;;;;;127.22;116.72;;;18.30;66.40;;;;;;5080458;28;20114;-77
2022/05/11 10:08:41;;;;;;;120.72;110.93;;;18.30;66.90;;;;;;5081871;28;20057;-77
2022/05/11 10:11:18;;;;;;;121.00;110.90;;;18.30;66.50;;;;;;5082554;28;20057;-76
2022/05/11 10:13:58;;;;;;;121.25;111.15;;;18.40;65.20;;;;;;5062781;28;20053;-76
2022/05/11 10:22:20;;;;;;;120.50;110.80;;;18.40;65.80;;;;;;5081758;28;20057;-76
2022/05/11 10:25:08;;;;;;;123.03;112.93;;;18.40;66.50;;;;;;5082323;28;20056;-76
2022/05/11 10:27:44;;;;;;;121.00;110.82;;;18.40;67.00;;;;;;5065451;28;20095;-76
2022/05/11 10:30:24;;;;;;;122.22;111.75;;;18.40;66.30;;;;;;5067833;28;20535;-76
2022/05/11 10:33:04;;;;;;;121.55;111.38;;;18.40;66.10;;;;;;5084323;28;20057;-76
2022/05/11 10:35:39;;;;;;;128.05;117.60;;;18.40;66.50;;;;;;5082640;28;20056;-76
2022/05/11 10:38:28;;;;;;;126.82;116.30;;;18.50;65.90;;;;;;5064271;28;20484;-77
2022/05/11 10:40:59;;;;;;;120.22;110.03;;;18.40;66.30;;;;;;5057267;28;20592;-76
2022/05/11 10:43:43;;;;;;;118.57;108.30;;;18.40;67.10;;;;;;5082625;28;20049;-76
2022/05/11 10:46:14;;;;;;;120.97;110.47;;;18.50;66.80;;;;;;5056912;28;20430;-77
2022/05/11 10:48:58;;;;;;;122.80;112.55;;;18.50;67.40;;;;;;5074835;28;20103;-75
2022/05/11 10:51:33;;;;;;;126.97;116.80;;;18.60;66.30;;;;;;5056713;28;20041;-76
2022/05/11 10:54:07;;;;;;;124.75;114.55;;;18.60;67.20;;;;;;5065922;28;20136;-75
2022/05/11 10:56:47;;;;;;;125.40;114.60;;;18.70;66.80;;;;;;5063450;28;20048;-75
2022/05/11 10:59:54;;;;;;;140.13;129.20;;;18.70;67.40;;;;;;5080187;28;20493;-76
2022/05/11 11:03:05;;;;;;;123.95;113.45;;;18.90;67.60;;;;;;5087076;28;20059;-77
2022/05/11 11:05:46;;;;;;;128.65;118.30;;;19.00;66.30;;;;;;5005870;28;20086;-77
2022/05/11 11:08:20;;;;;;;129.82;117.55;;;19.10;67.00;;;;;;5020550;28;20559;-75
2022/05/11 11:10:55;;;;;;;134.93;122.93;;;19.20;66.70;;;;;;5045756;28;20105;-79
2022/05/11 11:13:25;;;;;;;;;;;19.20;65.80;;;;;;5064052;28;20492;-80
2022/05/11 11:15:53;;;;;;;127.38;116.72;;;19.20;66.40;;;;;;5066666;28;19925;-80
2022/05/11 11:18:29;;;;;;;127.65;116.65;;;19.40;64.30;;;;;;5048506;28;20048;-76
2022/05/11 11:21:01;;;;;;;129.00;118.10;;;19.40;65.00;;;;;;5064828;28;20078;-81
2022/05/11 11:23:32;;;;;;;125.28;114.72;;;19.50;65.80;;;;;;5067741;28;20045;-76
2022/05/11 11:26:01;;;;;;;127.75;117.13;;;19.60;65.80;;;;;;5093343;28;20605;-74
2022/05/11 11:28:29;;;;;;;130.63;119.40;;;19.70;65.60;;;;;;5057775;28;20079;-75
2022/05/11 11:31:16;;;;;;;130.50;120.13;;;19.70;64.40;;;;;;5076137;28;20049;-73
2022/05/11 11:34:18;;;;;;;128.93;118.40;;;19.80;64.20;;;;;;5075856;28;20079;-74
2022/05/11 11:36:46;;;;;;;130.70;118.93;;;19.80;64.90;;;;;;5074318;28;20843;-76
2022/05/11 11:39:34;;;;;;;129.05;118.53;;;19.90;62.90;;;;;;5068592;28;20515;-75
2022/05/11 11:42:07;;;;;;;129.80;119.20;;;20.00;62.70;;;;;;5048338;28;20049;-74
2022/05/11 11:44:40;;;;;;;131.73;120.93;;;20.00;64.10;;;;;;5048474;28;20073;-75
2022/05/11 11:47:39;;;;;;;129.48;118.85;;;20.00;64.80;;;;;;5082779;28;20135;-74
2022/05/11 11:50:14;;;;;;;127.38;117.13;;;20.00;63.30;;;;;;5064120;28;20122;-73
2022/05/11 11:52:41;;;;;;;;;;;20.00;63.30;;;;;;5083633;28;20075;-75
2022/05/11 11:55:24;;;;;;;131.05;120.28;;;20.10;63.60;;;;;;5063382;28;19932;-75
2022/05/11 11:57:56;;;;;;;126.70;116.40;;;20.00;63.00;;;;;;5069941;28;20055;-75
2022/05/11 12:00:59;;;;;;;126.45;116.13;;;20.10;63.10;;;;;;5058748;28;20049;-74
2022/05/11 12:03:30;;;;;;;130.07;119.72;;;20.10;62.30;;;;;;5085455;28;20636;-74
2022/05/11 12:15:01;;;;;;;132.43;121.95;;;20.00;63.00;;;;;;5064955;28;20124;-74
2022/05/11 12:17:08;;;;;;;133.73;122.82;;;20.20;63.20;;;;;;5074608;28;20057;-74
2022/05/11 12:19:37;;;;;;;129.57;119.05;;;20.20;64.20;;;;;;5075576;28;20044;-74
2022/05/11 12:22:12;;;;;;;128.23;117.40;;;20.20;63.70;;;;;;5076012;28;20059;-74
2022/05/11 12:24:42;;;;;;;126.00;115.65;;;20.30;62.20;;;;;;5093535;28;20142;-74
2022/05/11 12:27:13;;;;;;;134.20;123.28;;;20.30;62.40;;;;;;5067224;28;20404;-74
2022/05/11 12:29:55;;;;;;;130.00;119.18;;;20.30;63.00;;;;;;5082279;28;20102;-74
2022/05/11 12:32:25;;;;;;;127.95;117.68;;;20.30;64.20;;;;;;5064200;28;20059;-74
2022/05/11 12:34:53;;;;;;;123.90;113.57;;;20.40;62.20;;;;;;5084316;28;20076;-74
2022/05/11 12:37:23;;;;;;;127.28;116.90;;;20.40;62.30;;;;;;5058301;28;20522;-76
2022/05/11 12:39:59;;;;;;;132.82;122.25;;;20.40;61.80;;;;;;5088975;28;20499;-76
2022/05/11 12:42:37;;;;;;;127.40;117.05;;;20.40;62.50;;;;;;5071296;28;20060;-76
2022/05/11 12:45:10;;;;;;;129.02;118.40;;;20.50;63.60;;;;;;5088384;28;20057;-76
2022/05/11 12:47:40;;;;;;;128.60;118.50;;;20.50;62.40;;;;;;5061345;28;20514;-75
2022/05/11 12:50:12;;;;;;;130.55;119.93;;;20.60;62.50;;;;;;5071296;28;20037;-75
2022/05/11 12:52:39;;;;;;;130.13;119.93;;;20.60;61.30;;;;;;5086231;28;20059;-75
2022/05/11 12:55:07;;;;;;;132.57;121.85;;;20.70;60.70;;;;;;5064369;28;20080;-74
2022/05/11 12:57:37;;;;;;;132.68;121.93;;;20.70;60.50;;;;;;5044925;28;20041;-74
2022/05/11 13:00:19;;;;;;;129.48;119.15;;;20.70;59.60;;;;;;5071705;28;20061;-74
2022/05/11 13:02:48;;;;;;;129.18;118.65;;;20.80;59.90;;;;;;5087795;28;20053;-75
2022/05/11 13:05:19;;;;;;;130.35;119.78;;;20.80;60.50;;;;;;5061199;28;20132;-75
2022/05/11 13:07:50;;;;;;;131.80;121.00;;;20.80;61.20;;;;;;5059198;28;20041;-74